Terminal Aerodrome Forecast
Issued by NWS

Home | Current Version | Previous Version | Text Only | Print | Product List | Glossary On
Versions: 1 2 3 4 5 6 7 8 9 10 11 12 13 14 15 16 17 18 19 20
944
FTUS43 KGRR 250530
TAFBTL
TAF
KBTL 250530Z 2506/2606 VRB05KT P6SM OVC007
     FM250900 34008KT P6SM OVC015
     FM251300 34010KT P6SM SCT035
     FM260000 34006KT P6SM SKC=

USA.gov is the U.S. government's official web portal to all federal, state and local government web resources and services.